sensor_id;sensor_type;location;lat;lon;timestamp;temperature;humidity
5246;DHT22;54412;51.206;6.888;2023-06-22T00:00:58;24.30;99.90
5246;DHT22;54412;51.206;6.888;2023-06-22T00:03:24;24.30;99.90
5246;DHT22;54412;51.206;6.888;2023-06-22T00:05:52;24.20;99.90
5246;DHT22;54412;51.206;6.888;2023-06-22T00:08:18;24.30;99.90
5246;DHT22;54412;51.206;6.888;2023-06-22T00:10:46;24.10;99.90
5246;DHT22;54412;51.206;6.888;2023-06-22T00:13:13;24.20;99.90
5246;DHT22;54412;51.206;6.888;2023-06-22T00:15:41;24.10;99.90
5246;DHT22;54412;51.206;6.888;2023-06-22T00:18:08;24.20;99.90
5246;DHT22;54412;51.206;6.888;2023-06-22T00:20:36;24.10;99.90
5246;DHT22;54412;51.206;6.888;2023-06-22T00:23:03;24.20;99.90
5246;DHT22;54412;51.206;6.888;2023-06-22T00:25:37;24.20;99.90
5246;DHT22;54412;51.206;6.888;2023-06-22T00:28:05;24.20;99.90
5246;DHT22;54412;51.206;6.888;2023-06-22T00:30:33;24.10;99.90
5246;DHT22;54412;51.206;6.888;2023-06-22T00:32:59;24.10;99.90
5246;DHT22;54412;51.206;6.888;2023-06-22T00:35:26;24.10;99.90
5246;DHT22;54412;51.206;6.888;2023-06-22T00:37:55;24.00;99.90
5246;DHT22;54412;51.206;6.888;2023-06-22T00:40:27;24.00;99.90
5246;DHT22;54412;51.206;6.888;2023-06-22T00:42:54;24.00;99.90
5246;DHT22;54412;51.206;6.888;2023-06-22T00:45:21;23.90;99.90
5246;DHT22;54412;51.206;6.888;2023-06-22T00:47:50;24.00;99.90
5246;DHT22;54412;51.206;6.888;2023-06-22T00:50:20;23.90;99.90
5246;DHT22;54412;51.206;6.888;2023-06-22T00:53:07;23.80;99.90
5246;DHT22;54412;51.206;6.888;2023-06-22T00:55:46;23.90;99.90
5246;DHT22;54412;51.206;6.888;2023-06-22T00:58:13;23.80;99.90
5246;DHT22;54412;51.206;6.888;2023-06-22T01:00:40;23.80;99.90
5246;DHT22;54412;51.206;6.888;2023-06-22T01:03:06;23.70;99.90
5246;DHT22;54412;51.206;6.888;2023-06-22T01:05:35;23.70;99.90
5246;DHT22;54412;51.206;6.888;2023-06-22T01:08:14;23.80;99.90
5246;DHT22;54412;51.206;6.888;2023-06-22T01:10:48;23.70;99.90
5246;DHT22;54412;51.206;6.888;2023-06-22T01:13:46;23.70;99.90
5246;DHT22;54412;51.206;6.888;2023-06-22T01:16:34;23.70;99.90
5246;DHT22;54412;51.206;6.888;2023-06-22T01:19:20;23.80;99.90
5246;DHT22;54412;51.206;6.888;2023-06-22T01:22:08;23.90;99.90
5246;DHT22;54412;51.206;6.888;2023-06-22T01:27:56;23.80;99.90
5246;DHT22;54412;51.206;6.888;2023-06-22T01:30:29;23.70;99.90
5246;DHT22;54412;51.206;6.888;2023-06-22T01:33:01;23.60;99.90
5246;DHT22;54412;51.206;6.888;2023-06-22T01:35:30;23.60;99.90
5246;DHT22;54412;51.206;6.888;2023-06-22T01:37:57;23.60;99.90
5246;DHT22;54412;51.206;6.888;2023-06-22T01:40:23;23.60;99.90
5246;DHT22;54412;51.206;6.888;2023-06-22T01:42:50;23.70;99.90
5246;DHT22;54412;51.206;6.888;2023-06-22T01:45:16;23.70;99.90
5246;DHT22;54412;51.206;6.888;2023-06-22T01:47:44;23.70;99.90
5246;DHT22;54412;51.206;6.888;2023-06-22T01:50:09;23.70;99.90
5246;DHT22;54412;51.206;6.888;2023-06-22T01:52:37;23.70;99.90
5246;DHT22;54412;51.206;6.888;2023-06-22T01:55:03;23.70;99.90
5246;DHT22;54412;51.206;6.888;2023-06-22T01:57:30;23.70;99.90
5246;DHT22;54412;51.206;6.888;2023-06-22T02:00:07;23.70;99.90
5246;DHT22;54412;51.206;6.888;2023-06-22T02:02:59;23.70;99.90
5246;DHT22;54412;51.206;6.888;2023-06-22T02:05:35;23.70;99.90
5246;DHT22;54412;51.206;6.888;2023-06-22T02:08:09;23.70;99.90
5246;DHT22;54412;51.206;6.888;2023-06-22T02:10:38;23.70;99.90
5246;DHT22;54412;51.206;6.888;2023-06-22T02:13:07;23.70;99.90
5246;DHT22;54412;51.206;6.888;2023-06-22T02:15:35;23.60;99.90
5246;DHT22;54412;51.206;6.888;2023-06-22T02:18:02;23.60;99.90
5246;DHT22;54412;51.206;6.888;2023-06-22T02:20:28;23.60;99.90
5246;DHT22;54412;51.206;6.888;2023-06-22T02:22:54;23.50;99.90
5246;DHT22;54412;51.206;6.888;2023-06-22T02:25:19;23.40;99.90
5246;DHT22;54412;51.206;6.888;2023-06-22T02:27:46;23.40;99.90
5246;DHT22;54412;51.206;6.888;2023-06-22T02:30:12;23.40;99.90
5246;DHT22;54412;51.206;6.888;2023-06-22T02:32:40;23.40;99.90
5246;DHT22;54412;51.206;6.888;2023-06-22T02:35:08;23.30;99.90
5246;DHT22;54412;51.206;6.888;2023-06-22T02:37:38;23.30;99.90
5246;DHT22;54412;51.206;6.888;2023-06-22T02:40:08;23.40;99.90
5246;DHT22;54412;51.206;6.888;2023-06-22T02:42:37;23.40;99.90
5246;DHT22;54412;51.206;6.888;2023-06-22T02:45:05;23.40;99.90
5246;DHT22;54412;51.206;6.888;2023-06-22T02:47:31;23.30;99.90
5246;DHT22;54412;51.206;6.888;2023-06-22T02:49:57;23.20;99.90
5246;DHT22;54412;51.206;6.888;2023-06-22T02:52:23;23.40;99.90
5246;DHT22;54412;51.206;6.888;2023-06-22T02:54:48;23.40;99.90
5246;DHT22;54412;51.206;6.888;2023-06-22T02:57:14;23.40;99.90
5246;DHT22;54412;51.206;6.888;2023-06-22T02:59:40;23.40;99.90
5246;DHT22;54412;51.206;6.888;2023-06-22T03:02:07;23.30;99.90
5246;DHT22;54412;51.206;6.888;2023-06-22T03:04:34;23.20;99.90
5246;DHT22;54412;51.206;6.888;2023-06-22T03:07:00;23.20;99.90
5246;DHT22;54412;51.206;6.888;2023-06-22T03:09:27;23.40;99.90
5246;DHT22;54412;51.206;6.888;2023-06-22T03:11:54;23.40;99.90
5246;DHT22;54412;51.206;6.888;2023-06-22T03:14:20;23.30;99.90
5246;DHT22;54412;51.206;6.888;2023-06-22T03:16:46;23.30;99.90
5246;DHT22;54412;51.206;6.888;2023-06-22T03:19:12;23.30;99.90
5246;DHT22;54412;51.206;6.888;2023-06-22T03:21:39;23.30;99.90
5246;DHT22;54412;51.206;6.888;2023-06-22T03:24:05;23.30;99.90
5246;DHT22;54412;51.206;6.888;2023-06-22T03:26:32;23.30;99.90
5246;DHT22;54412;51.206;6.888;2023-06-22T03:28:59;23.40;99.90
5246;DHT22;54412;51.206;6.888;2023-06-22T03:31:25;23.40;99.90
5246;DHT22;54412;51.206;6.888;2023-06-22T03:33:51;23.40;99.90
5246;DHT22;54412;51.206;6.888;2023-06-22T03:36:17;23.40;99.90
5246;DHT22;54412;51.206;6.888;2023-06-22T03:38:45;23.40;99.90
5246;DHT22;54412;51.206;6.888;2023-06-22T03:41:11;23.30;99.90
5246;DHT22;54412;51.206;6.888;2023-06-22T03:43:37;23.30;99.90
5246;DHT22;54412;51.206;6.888;2023-06-22T03:46:03;23.20;99.90
5246;DHT22;54412;51.206;6.888;2023-06-22T03:48:28;23.10;99.90
5246;DHT22;54412;51.206;6.888;2023-06-22T03:50:54;23.20;99.90
5246;DHT22;54412;51.206;6.888;2023-06-22T03:53:20;23.20;99.90
5246;DHT22;54412;51.206;6.888;2023-06-22T03:55:52;23.20;99.90
5246;DHT22;54412;51.206;6.888;2023-06-22T03:58:19;23.30;99.90
5246;DHT22;54412;51.206;6.888;2023-06-22T04:00:46;23.30;99.90
5246;DHT22;54412;51.206;6.888;2023-06-22T04:03:16;23.30;99.90
5246;DHT22;54412;51.206;6.888;2023-06-22T04:05:46;23.30;99.90
5246;DHT22;54412;51.206;6.888;2023-06-22T04:08:12;23.20;99.90
5246;DHT22;54412;51.206;6.888;2023-06-22T04:10:39;23.00;99.90
5246;DHT22;54412;51.206;6.888;2023-06-22T04:13:04;22.90;99.90
5246;DHT22;54412;51.206;6.888;2023-06-22T04:15:30;23.00;99.90
5246;DHT22;54412;51.206;6.888;2023-06-22T04:17:56;23.10;99.90
5246;DHT22;54412;51.206;6.888;2023-06-22T04:20:22;22.90;99.90
5246;DHT22;54412;51.206;6.888;2023-06-22T04:22:54;22.90;99.90
5246;DHT22;54412;51.206;6.888;2023-06-22T04:25:20;23.00;99.90
5246;DHT22;54412;51.206;6.888;2023-06-22T04:27:47;23.10;99.90
5246;DHT22;54412;51.206;6.888;2023-06-22T04:30:13;23.20;99.90
5246;DHT22;54412;51.206;6.888;2023-06-22T04:32:43;23.20;99.90
5246;DHT22;54412;51.206;6.888;2023-06-22T04:35:10;23.30;99.90
5246;DHT22;54412;51.206;6.888;2023-06-22T04:37:36;23.20;99.90
5246;DHT22;54412;51.206;6.888;2023-06-22T04:40:02;23.20;99.90
5246;DHT22;54412;51.206;6.888;2023-06-22T04:42:30;23.30;99.90
5246;DHT22;54412;51.206;6.888;2023-06-22T04:44:57;23.30;99.90
5246;DHT22;54412;51.206;6.888;2023-06-22T04:47:22;23.30;99.90
5246;DHT22;54412;51.206;6.888;2023-06-22T04:49:48;23.30;99.90
5246;DHT22;54412;51.206;6.888;2023-06-22T04:52:14;23.20;99.90
5246;DHT22;54412;51.206;6.888;2023-06-22T04:54:43;23.20;99.90
5246;DHT22;54412;51.206;6.888;2023-06-22T04:57:16;23.10;99.90
5246;DHT22;54412;51.206;6.888;2023-06-22T04:59:43;23.20;99.90
5246;DHT22;54412;51.206;6.888;2023-06-22T05:02:09;23.10;99.90
5246;DHT22;54412;51.206;6.888;2023-06-22T05:04:35;23.20;99.90
5246;DHT22;54412;51.206;6.888;2023-06-22T05:07:03;23.20;99.90
5246;DHT22;54412;51.206;6.888;2023-06-22T05:09:30;23.30;99.90
5246;DHT22;54412;51.206;6.888;2023-06-22T05:11:55;23.40;99.90
5246;DHT22;54412;51.206;6.888;2023-06-22T05:14:25;23.40;99.90
5246;DHT22;54412;51.206;6.888;2023-06-22T05:16:50;23.40;99.90
5246;DHT22;54412;51.206;6.888;2023-06-22T05:19:17;23.40;99.90
5246;DHT22;54412;51.206;6.888;2023-06-22T05:21:43;23.40;99.90
5246;DHT22;54412;51.206;6.888;2023-06-22T05:24:08;23.50;99.90
5246;DHT22;54412;51.206;6.888;2023-06-22T05:26:35;23.50;99.90
5246;DHT22;54412;51.206;6.888;2023-06-22T05:29:02;23.70;99.90
5246;DHT22;54412;51.206;6.888;2023-06-22T05:31:29;23.50;99.90
5246;DHT22;54412;51.206;6.888;2023-06-22T05:33:55;23.60;99.90
5246;DHT22;54412;51.206;6.888;2023-06-22T05:36:21;23.60;99.90
5246;DHT22;54412;51.206;6.888;2023-06-22T05:38:51;23.60;99.90
5246;DHT22;54412;51.206;6.888;2023-06-22T05:41:17;23.70;99.90
5246;DHT22;54412;51.206;6.888;2023-06-22T05:43:43;23.60;99.90
5246;DHT22;54412;51.206;6.888;2023-06-22T05:46:09;23.50;99.90
5246;DHT22;54412;51.206;6.888;2023-06-22T05:48:35;23.50;99.90
5246;DHT22;54412;51.206;6.888;2023-06-22T05:51:00;23.50;99.90
5246;DHT22;54412;51.206;6.888;2023-06-22T05:53:26;23.50;99.90
5246;DHT22;54412;51.206;6.888;2023-06-22T05:55:52;23.60;99.90
5246;DHT22;54412;51.206;6.888;2023-06-22T05:58:18;23.60;99.90
5246;DHT22;54412;51.206;6.888;2023-06-22T06:00:44;23.50;99.90
5246;DHT22;54412;51.206;6.888;2023-06-22T06:03:10;23.50;99.90
5246;DHT22;54412;51.206;6.888;2023-06-22T06:05:36;23.50;99.90
5246;DHT22;54412;51.206;6.888;2023-06-22T06:08:04;23.60;99.90
5246;DHT22;54412;51.206;6.888;2023-06-22T06:10:32;23.50;99.90
5246;DHT22;54412;51.206;6.888;2023-06-22T06:12:59;23.50;99.90
5246;DHT22;54412;51.206;6.888;2023-06-22T06:15:28;23.50;99.90
5246;DHT22;54412;51.206;6.888;2023-06-22T06:17:54;23.50;99.90
5246;DHT22;54412;51.206;6.888;2023-06-22T06:20:22;23.40;99.90
5246;DHT22;54412;51.206;6.888;2023-06-22T06:22:49;23.40;99.90
5246;DHT22;54412;51.206;6.888;2023-06-22T06:25:15;23.50;99.90
5246;DHT22;54412;51.206;6.888;2023-06-22T06:27:42;23.50;99.90
5246;DHT22;54412;51.206;6.888;2023-06-22T06:30:10;23.50;99.90
5246;DHT22;54412;51.206;6.888;2023-06-22T06:32:36;23.70;99.90
5246;DHT22;54412;51.206;6.888;2023-06-22T06:35:06;23.60;99.90
5246;DHT22;54412;51.206;6.888;2023-06-22T06:37:36;23.50;99.90
5246;DHT22;54412;51.206;6.888;2023-06-22T06:40:04;23.50;99.90
5246;DHT22;54412;51.206;6.888;2023-06-22T06:42:34;23.40;99.90
5246;DHT22;54412;51.206;6.888;2023-06-22T06:44:59;23.40;99.90
5246;DHT22;54412;51.206;6.888;2023-06-22T06:47:25;23.30;99.90
5246;DHT22;54412;51.206;6.888;2023-06-22T06:49:51;23.30;99.90
5246;DHT22;54412;51.206;6.888;2023-06-22T06:52:16;23.30;99.90
5246;DHT22;54412;51.206;6.888;2023-06-22T06:54:42;23.30;99.90
5246;DHT22;54412;51.206;6.888;2023-06-22T06:57:08;23.30;99.90
5246;DHT22;54412;51.206;6.888;2023-06-22T06:59:36;23.10;99.90
5246;DHT22;54412;51.206;6.888;2023-06-22T07:02:01;22.90;99.90
5246;DHT22;54412;51.206;6.888;2023-06-22T07:04:27;22.70;99.90
5246;DHT22;54412;51.206;6.888;2023-06-22T07:06:53;22.40;99.90
5246;DHT22;54412;51.206;6.888;2023-06-22T07:09:18;22.40;99.90
5246;DHT22;54412;51.206;6.888;2023-06-22T07:11:44;22.70;99.90
5246;DHT22;54412;51.206;6.888;2023-06-22T07:14:09;22.70;99.90
5246;DHT22;54412;51.206;6.888;2023-06-22T07:16:35;22.50;99.90
5246;DHT22;54412;51.206;6.888;2023-06-22T07:19:01;22.30;99.90
5246;DHT22;54412;51.206;6.888;2023-06-22T07:21:26;22.30;99.90
5246;DHT22;54412;51.206;6.888;2023-06-22T07:23:52;22.30;99.90
5246;DHT22;54412;51.206;6.888;2023-06-22T07:26:19;22.40;99.90
5246;DHT22;54412;51.206;6.888;2023-06-22T07:28:45;22.40;99.90
5246;DHT22;54412;51.206;6.888;2023-06-22T07:31:10;22.60;99.90
5246;DHT22;54412;51.206;6.888;2023-06-22T07:33:36;22.70;99.90
5246;DHT22;54412;51.206;6.888;2023-06-22T07:36:02;22.70;99.90
5246;DHT22;54412;51.206;6.888;2023-06-22T07:38:32;22.70;99.90
5246;DHT22;54412;51.206;6.888;2023-06-22T07:40:59;22.70;99.90
5246;DHT22;54412;51.206;6.888;2023-06-22T07:43:25;22.70;99.90
5246;DHT22;54412;51.206;6.888;2023-06-22T07:45:50;22.90;99.90
5246;DHT22;54412;51.206;6.888;2023-06-22T07:48:21;23.10;99.90
5246;DHT22;54412;51.206;6.888;2023-06-22T07:50:47;23.20;99.90
5246;DHT22;54412;51.206;6.888;2023-06-22T07:53:13;23.30;99.90
5246;DHT22;54412;51.206;6.888;2023-06-22T07:55:39;23.50;99.90
5246;DHT22;54412;51.206;6.888;2023-06-22T07:58:05;23.50;99.90
5246;DHT22;54412;51.206;6.888;2023-06-22T08:00:30;23.60;99.90
5246;DHT22;54412;51.206;6.888;2023-06-22T08:02:56;23.80;99.90
5246;DHT22;54412;51.206;6.888;2023-06-22T08:05:22;24.00;99.90
5246;DHT22;54412;51.206;6.888;2023-06-22T08:07:48;24.30;99.90
5246;DHT22;54412;51.206;6.888;2023-06-22T08:10:14;24.20;99.90
5246;DHT22;54412;51.206;6.888;2023-06-22T08:12:40;24.40;99.90
5246;DHT22;54412;51.206;6.888;2023-06-22T08:15:06;24.30;99.90
5246;DHT22;54412;51.206;6.888;2023-06-22T08:17:33;24.40;99.90
5246;DHT22;54412;51.206;6.888;2023-06-22T08:19:59;24.40;99.90
5246;DHT22;54412;51.206;6.888;2023-06-22T08:22:25;24.40;99.90
5246;DHT22;54412;51.206;6.888;2023-06-22T08:24:50;24.50;99.90
5246;DHT22;54412;51.206;6.888;2023-06-22T08:27:16;24.70;99.90
5246;DHT22;54412;51.206;6.888;2023-06-22T08:29:44;24.70;99.90
5246;DHT22;54412;51.206;6.888;2023-06-22T08:32:11;24.80;99.90
5246;DHT22;54412;51.206;6.888;2023-06-22T08:34:37;25.00;99.90
5246;DHT22;54412;51.206;6.888;2023-06-22T08:37:08;25.10;99.90
5246;DHT22;54412;51.206;6.888;2023-06-22T08:39:34;25.20;99.90
5246;DHT22;54412;51.206;6.888;2023-06-22T08:42:00;25.30;99.90
5246;DHT22;54412;51.206;6.888;2023-06-22T08:44:26;25.20;99.90
5246;DHT22;54412;51.206;6.888;2023-06-22T08:46:51;25.30;99.90
5246;DHT22;54412;51.206;6.888;2023-06-22T08:49:17;25.40;99.90
5246;DHT22;54412;51.206;6.888;2023-06-22T08:51:43;25.60;99.90
5246;DHT22;54412;51.206;6.888;2023-06-22T08:54:10;25.80;99.90
5246;DHT22;54412;51.206;6.888;2023-06-22T08:56:36;25.90;99.90
5246;DHT22;54412;51.206;6.888;2023-06-22T08:59:02;26.10;99.90
5246;DHT22;54412;51.206;6.888;2023-06-22T09:01:28;26.10;99.90
5246;DHT22;54412;51.206;6.888;2023-06-22T09:03:53;26.20;99.90
5246;DHT22;54412;51.206;6.888;2023-06-22T09:06:23;26.30;99.90
5246;DHT22;54412;51.206;6.888;2023-06-22T09:08:49;26.40;99.90
5246;DHT22;54412;51.206;6.888;2023-06-22T09:11:16;26.60;99.90
5246;DHT22;54412;51.206;6.888;2023-06-22T09:13:41;26.60;99.90
5246;DHT22;54412;51.206;6.888;2023-06-22T09:16:07;26.70;99.90
5246;DHT22;54412;51.206;6.888;2023-06-22T09:18:36;26.90;99.90
5246;DHT22;54412;51.206;6.888;2023-06-22T09:21:02;27.00;99.90
5246;DHT22;54412;51.206;6.888;2023-06-22T09:23:28;26.70;99.90
5246;DHT22;54412;51.206;6.888;2023-06-22T09:25:54;26.60;99.90
5246;DHT22;54412;51.206;6.888;2023-06-22T09:28:19;26.60;99.90
5246;DHT22;54412;51.206;6.888;2023-06-22T09:30:45;26.50;99.90
5246;DHT22;54412;51.206;6.888;2023-06-22T09:33:11;26.60;99.90
5246;DHT22;54412;51.206;6.888;2023-06-22T09:35:36;26.60;99.90
5246;DHT22;54412;51.206;6.888;2023-06-22T09:38:02;26.80;99.90
5246;DHT22;54412;51.206;6.888;2023-06-22T09:40:28;26.90;99.90
5246;DHT22;54412;51.206;6.888;2023-06-22T09:42:53;27.00;99.90
5246;DHT22;54412;51.206;6.888;2023-06-22T09:45:19;27.00;99.90
5246;DHT22;54412;51.206;6.888;2023-06-22T09:47:45;27.10;99.90
5246;DHT22;54412;51.206;6.888;2023-06-22T09:50:10;27.00;99.90
5246;DHT22;54412;51.206;6.888;2023-06-22T09:52:36;27.10;99.90
5246;DHT22;54412;51.206;6.888;2023-06-22T09:55:02;27.00;99.90
5246;DHT22;54412;51.206;6.888;2023-06-22T09:57:29;27.00;99.90
5246;DHT22;54412;51.206;6.888;2023-06-22T09:59:55;27.20;99.90
5246;DHT22;54412;51.206;6.888;2023-06-22T10:02:21;27.20;99.90
5246;DHT22;54412;51.206;6.888;2023-06-22T10:04:47;27.20;99.90
5246;DHT22;54412;51.206;6.888;2023-06-22T10:07:13;27.30;99.90
5246;DHT22;54412;51.206;6.888;2023-06-22T10:09:39;27.30;99.90
5246;DHT22;54412;51.206;6.888;2023-06-22T10:12:05;27.40;99.90
5246;DHT22;54412;51.206;6.888;2023-06-22T10:14:31;27.40;99.90
5246;DHT22;54412;51.206;6.888;2023-06-22T10:16:57;27.40;99.90
5246;DHT22;54412;51.206;6.888;2023-06-22T10:19:22;27.40;99.90
5246;DHT22;54412;51.206;6.888;2023-06-22T10:21:48;27.30;99.90
5246;DHT22;54412;51.206;6.888;2023-06-22T10:24:14;27.20;99.90
5246;DHT22;54412;51.206;6.888;2023-06-22T10:26:39;27.00;99.90
5246;DHT22;54412;51.206;6.888;2023-06-22T10:29:05;26.90;99.90
5246;DHT22;54412;51.206;6.888;2023-06-22T10:31:31;26.80;99.90
5246;DHT22;54412;51.206;6.888;2023-06-22T10:33:57;26.70;99.90
5246;DHT22;54412;51.206;6.888;2023-06-22T10:36:22;26.60;99.90
5246;DHT22;54412;51.206;6.888;2023-06-22T10:38:48;26.50;99.90
5246;DHT22;54412;51.206;6.888;2023-06-22T10:41:15;26.50;99.90
5246;DHT22;54412;51.206;6.888;2023-06-22T10:43:41;26.40;99.90
5246;DHT22;54412;51.206;6.888;2023-06-22T10:46:07;26.40;99.90
5246;DHT22;54412;51.206;6.888;2023-06-22T10:48:33;26.30;99.90
5246;DHT22;54412;51.206;6.888;2023-06-22T10:50:59;26.20;99.90
5246;DHT22;54412;51.206;6.888;2023-06-22T10:53:25;26.00;99.90
5246;DHT22;54412;51.206;6.888;2023-06-22T10:55:50;25.90;99.90
5246;DHT22;54412;51.206;6.888;2023-06-22T10:58:20;25.80;99.90
5246;DHT22;54412;51.206;6.888;2023-06-22T11:00:46;25.60;99.90
5246;DHT22;54412;51.206;6.888;2023-06-22T11:03:11;25.30;99.90
5246;DHT22;54412;51.206;6.888;2023-06-22T11:05:39;25.10;99.90
5246;DHT22;54412;51.206;6.888;2023-06-22T11:08:05;25.10;99.90
5246;DHT22;54412;51.206;6.888;2023-06-22T11:10:31;24.90;99.90
5246;DHT22;54412;51.206;6.888;2023-06-22T11:12:56;25.00;99.90
5246;DHT22;54412;51.206;6.888;2023-06-22T11:15:23;25.00;99.90
5246;DHT22;54412;51.206;6.888;2023-06-22T11:17:50;25.00;99.90
5246;DHT22;54412;51.206;6.888;2023-06-22T11:20:15;25.10;99.90
5246;DHT22;54412;51.206;6.888;2023-06-22T11:22:42;25.10;99.90
5246;DHT22;54412;51.206;6.888;2023-06-22T11:25:08;25.10;99.90
5246;DHT22;54412;51.206;6.888;2023-06-22T11:27:34;24.90;99.90
5246;DHT22;54412;51.206;6.888;2023-06-22T11:30:00;25.00;99.90
5246;DHT22;54412;51.206;6.888;2023-06-22T11:32:26;24.90;99.90
5246;DHT22;54412;51.206;6.888;2023-06-22T11:34:52;24.80;99.90
5246;DHT22;54412;51.206;6.888;2023-06-22T11:37:17;24.70;99.90
5246;DHT22;54412;51.206;6.888;2023-06-22T11:39:43;24.50;99.90
5246;DHT22;54412;51.206;6.888;2023-06-22T11:42:09;24.50;99.90
5246;DHT22;54412;51.206;6.888;2023-06-22T11:44:35;24.40;99.90
5246;DHT22;54412;51.206;6.888;2023-06-22T11:47:01;24.40;99.90
5246;DHT22;54412;51.206;6.888;2023-06-22T11:49:30;24.50;99.90
5246;DHT22;54412;51.206;6.888;2023-06-22T11:51:56;24.40;99.90
5246;DHT22;54412;51.206;6.888;2023-06-22T11:54:22;24.60;99.90
5246;DHT22;54412;51.206;6.888;2023-06-22T11:56:48;24.60;99.90
5246;DHT22;54412;51.206;6.888;2023-06-22T11:59:13;24.70;99.90
5246;DHT22;54412;51.206;6.888;2023-06-22T12:01:39;24.70;99.90
5246;DHT22;54412;51.206;6.888;2023-06-22T12:04:05;24.60;99.90
5246;DHT22;54412;51.206;6.888;2023-06-22T12:06:32;24.60;99.90
5246;DHT22;54412;51.206;6.888;2023-06-22T12:08:58;24.60;99.90
5246;DHT22;54412;51.206;6.888;2023-06-22T12:11:24;24.60;99.90
5246;DHT22;54412;51.206;6.888;2023-06-22T12:13:50;24.50;99.90
5246;DHT22;54412;51.206;6.888;2023-06-22T12:16:15;24.30;99.90
5246;DHT22;54412;51.206;6.888;2023-06-22T12:18:41;24.30;99.90
5246;DHT22;54412;51.206;6.888;2023-06-22T12:21:07;24.30;99.90
5246;DHT22;54412;51.206;6.888;2023-06-22T12:23:33;24.20;99.90
5246;DHT22;54412;51.206;6.888;2023-06-22T12:25:58;24.20;99.90
5246;DHT22;54412;51.206;6.888;2023-06-22T12:28:25;24.20;99.90
5246;DHT22;54412;51.206;6.888;2023-06-22T12:30:51;24.10;99.90
5246;DHT22;54412;51.206;6.888;2023-06-22T12:33:16;24.30;99.90
5246;DHT22;54412;51.206;6.888;2023-06-22T12:35:43;24.20;99.90
5246;DHT22;54412;51.206;6.888;2023-06-22T12:38:10;24.30;99.90
5246;DHT22;54412;51.206;6.888;2023-06-22T12:40:36;24.40;99.90
5246;DHT22;54412;51.206;6.888;2023-06-22T12:43:02;24.60;99.90
5246;DHT22;54412;51.206;6.888;2023-06-22T12:45:28;24.50;99.90
5246;DHT22;54412;51.206;6.888;2023-06-22T12:47:57;24.50;99.90
5246;DHT22;54412;51.206;6.888;2023-06-22T12:50:22;24.60;99.90
5246;DHT22;54412;51.206;6.888;2023-06-22T12:52:48;24.80;99.90
5246;DHT22;54412;51.206;6.888;2023-06-22T12:55:14;24.80;99.90
5246;DHT22;54412;51.206;6.888;2023-06-22T12:57:39;24.80;99.90
5246;DHT22;54412;51.206;6.888;2023-06-22T13:00:06;25.00;99.90
5246;DHT22;54412;51.206;6.888;2023-06-22T13:02:34;24.90;99.90
5246;DHT22;54412;51.206;6.888;2023-06-22T13:05:01;24.90;99.90
5246;DHT22;54412;51.206;6.888;2023-06-22T13:07:27;24.80;99.90
5246;DHT22;54412;51.206;6.888;2023-06-22T13:09:53;24.80;99.90
5246;DHT22;54412;51.206;6.888;2023-06-22T13:12:20;24.80;99.90
5246;DHT22;54412;51.206;6.888;2023-06-22T13:14:46;24.90;99.90
5246;DHT22;54412;51.206;6.888;2023-06-22T13:17:12;24.80;99.90
5246;DHT22;54412;51.206;6.888;2023-06-22T13:19:39;24.80;99.90
5246;DHT22;54412;51.206;6.888;2023-06-22T13:22:10;24.80;99.90
5246;DHT22;54412;51.206;6.888;2023-06-22T13:24:55;24.90;99.90
5246;DHT22;54412;51.206;6.888;2023-06-22T13:27:20;24.90;99.90
5246;DHT22;54412;51.206;6.888;2023-06-22T13:29:46;25.00;99.90
5246;DHT22;54412;51.206;6.888;2023-06-22T13:32:12;25.00;99.90
5246;DHT22;54412;51.206;6.888;2023-06-22T13:34:37;25.10;99.90
5246;DHT22;54412;51.206;6.888;2023-06-22T13:37:03;25.20;99.90
5246;DHT22;54412;51.206;6.888;2023-06-22T13:39:29;25.20;99.90
5246;DHT22;54412;51.206;6.888;2023-06-22T13:41:56;25.20;99.90
5246;DHT22;54412;51.206;6.888;2023-06-22T13:44:21;25.10;99.90
5246;DHT22;54412;51.206;6.888;2023-06-22T13:46:47;25.20;99.90
5246;DHT22;54412;51.206;6.888;2023-06-22T13:49:13;25.00;99.90
5246;DHT22;54412;51.206;6.888;2023-06-22T13:51:39;25.00;99.90
5246;DHT22;54412;51.206;6.888;2023-06-22T13:54:04;25.10;99.90
5246;DHT22;54412;51.206;6.888;2023-06-22T13:56:30;25.00;99.90
5246;DHT22;54412;51.206;6.888;2023-06-22T13:58:55;25.00;99.90
5246;DHT22;54412;51.206;6.888;2023-06-22T14:01:21;24.90;99.90
5246;DHT22;54412;51.206;6.888;2023-06-22T14:03:48;25.00;99.90
5246;DHT22;54412;51.206;6.888;2023-06-22T14:06:13;25.10;99.90
5246;DHT22;54412;51.206;6.888;2023-06-22T14:08:39;25.10;99.90
5246;DHT22;54412;51.206;6.888;2023-06-22T14:11:05;25.30;99.90
5246;DHT22;54412;51.206;6.888;2023-06-22T14:13:30;25.40;99.90
5246;DHT22;54412;51.206;6.888;2023-06-22T14:15:56;25.60;99.90
5246;DHT22;54412;51.206;6.888;2023-06-22T14:18:22;25.50;99.90
5246;DHT22;54412;51.206;6.888;2023-06-22T14:20:48;25.40;99.90
5246;DHT22;54412;51.206;6.888;2023-06-22T14:23:14;25.60;99.90
5246;DHT22;54412;51.206;6.888;2023-06-22T14:25:40;25.60;99.90
5246;DHT22;54412;51.206;6.888;2023-06-22T14:28:06;25.30;99.90
5246;DHT22;54412;51.206;6.888;2023-06-22T14:30:32;25.20;99.90
5246;DHT22;54412;51.206;6.888;2023-06-22T14:32:57;25.20;99.90
5246;DHT22;54412;51.206;6.888;2023-06-22T14:35:23;25.10;99.90
5246;DHT22;54412;51.206;6.888;2023-06-22T14:37:50;25.20;99.90
5246;DHT22;54412;51.206;6.888;2023-06-22T14:40:15;25.20;99.90
5246;DHT22;54412;51.206;6.888;2023-06-22T14:42:41;25.10;99.90
5246;DHT22;54412;51.206;6.888;2023-06-22T14:45:07;25.20;99.90
5246;DHT22;54412;51.206;6.888;2023-06-22T14:47:33;25.10;99.90
5246;DHT22;54412;51.206;6.888;2023-06-22T14:49:59;25.10;99.90
5246;DHT22;54412;51.206;6.888;2023-06-22T14:52:26;25.00;99.90
5246;DHT22;54412;51.206;6.888;2023-06-22T14:54:52;24.90;99.90
5246;DHT22;54412;51.206;6.888;2023-06-22T14:57:19;24.90;99.90
5246;DHT22;54412;51.206;6.888;2023-06-22T14:59:46;24.80;99.90
5246;DHT22;54412;51.206;6.888;2023-06-22T15:02:13;24.80;99.90
5246;DHT22;54412;51.206;6.888;2023-06-22T15:04:40;24.90;99.90
5246;DHT22;54412;51.206;6.888;2023-06-22T15:07:06;25.00;99.90
5246;DHT22;54412;51.206;6.888;2023-06-22T15:09:31;24.90;99.90
5246;DHT22;54412;51.206;6.888;2023-06-22T15:11:58;24.90;99.90
5246;DHT22;54412;51.206;6.888;2023-06-22T15:14:27;24.90;99.90
5246;DHT22;54412;51.206;6.888;2023-06-22T15:16:53;24.90;99.90
5246;DHT22;54412;51.206;6.888;2023-06-22T15:19:18;24.90;99.90
5246;DHT22;54412;51.206;6.888;2023-06-22T15:21:44;24.90;99.90
5246;DHT22;54412;51.206;6.888;2023-06-22T15:24:11;24.80;99.90
5246;DHT22;54412;51.206;6.888;2023-06-22T15:26:36;24.90;99.90
5246;DHT22;54412;51.206;6.888;2023-06-22T15:29:02;24.80;99.90
5246;DHT22;54412;51.206;6.888;2023-06-22T15:31:29;24.70;99.90
5246;DHT22;54412;51.206;6.888;2023-06-22T15:33:54;24.50;99.90
5246;DHT22;54412;51.206;6.888;2023-06-22T15:36:20;24.50;99.90
5246;DHT22;54412;51.206;6.888;2023-06-22T15:38:46;24.40;99.90
5246;DHT22;54412;51.206;6.888;2023-06-22T15:41:12;24.40;99.90
5246;DHT22;54412;51.206;6.888;2023-06-22T15:43:38;24.30;99.90
5246;DHT22;54412;51.206;6.888;2023-06-22T15:46:03;24.30;99.90